Time;durP1;ratioP1;P1;durP2;ratioP2;P2;SDS_P1;SDS_P2;PMS_P1;PMS_P2;Temp;Humidity;BMP_temperature;BMP_pressure;BME280_temperature;BME280_humidity;BME280_pressure;Samples;Min_cycle;Max_cycle;Signal;HPM_P1;HPM_P2
2022/02/06 00:00:31;;;;;;;5.13;2.78;;;;;;;0.36;76.35;100642.94;6286870;28;20089;-73
2022/02/06 00:03:32;;;;;;;5.05;3.13;;;;;;;0.35;76.16;100638.66;6270212;28;20046;-73
2022/02/06 00:06:35;;;;;;;6.13;3.03;;;;;;;0.35;76.31;100632.66;6286776;28;20040;-73
2022/02/06 00:09:36;;;;;;;8.13;3.70;;;;;;;0.27;77.09;100632.75;6286602;28;20036;-73
2022/02/06 00:12:37;;;;;;;4.45;2.67;;;;;;;0.18;78.96;100632.84;6291142;28;20052;-73
2022/02/06 00:15:40;;;;;;;6.75;3.30;;;;;;;0.05;79.71;100621.84;6295721;28;20523;-73
2022/02/06 00:18:43;;;;;;;15.82;4.13;;;;;;;-0.06;80.52;100619.38;6261455;28;20048;-73
2022/02/06 00:21:44;;;;;;;13.05;4.78;;;;;;;-0.08;81.69;100620.25;6295811;28;20053;-73
2022/02/06 00:24:54;;;;;;;16.38;6.47;;;;;;;-0.16;81.92;100611.75;6295857;28;20502;-73
2022/02/06 00:31:28;;;;;;;18.80;7.97;;;;;;;-0.23;82.44;100613.50;6295735;28;20094;-67
2022/02/06 00:41:14;;;;;;;13.40;6.07;;;;;;;-0.48;84.91;100613.69;6300324;28;20106;-69
2022/02/06 00:44:15;;;;;;;9.80;5.40;;;;;;;-0.48;86.21;100615.41;6290262;28;20059;-68
2022/02/06 00:47:16;;;;;;;8.13;4.93;;;;;;;-0.48;86.68;100618.81;6307346;28;20381;-69
2022/02/06 00:50:17;;;;;;;12.68;4.90;;;;;;;-0.55;86.82;100616.31;6306753;28;20064;-70
2022/02/06 00:53:18;;;;;;;13.00;5.40;;;;;;;-0.59;87.50;100617.19;6325256;28;20515;-70
2022/02/06 00:56:20;;;;;;;13.98;5.55;;;;;;;-0.63;86.99;100604.38;6307149;28;20043;-69
2022/02/06 00:59:20;;;;;;;8.25;4.30;;;;;;;-0.64;87.78;100617.19;6324857;28;20510;-69
2022/02/06 01:02:21;;;;;;;11.65;5.47;;;;;;;-0.66;87.58;100606.97;6325018;28;20044;-69
2022/02/06 01:05:22;;;;;;;15.68;7.07;;;;;;;-0.34;84.62;100600.78;6306886;28;20051;-69
2022/02/06 01:08:23;;;;;;;14.45;6.00;;;;;;;-0.65;88.03;100600.13;6290245;28;20067;-70
2022/02/06 01:11:24;;;;;;;16.15;6.53;;;;;;;-0.86;90.27;100596.84;6290140;28;20051;-69
2022/02/06 01:18:03;;;;;;;13.60;5.93;;;;;;;-0.65;86.49;100598.41;6297882;28;20056;-73
2022/02/06 01:21:17;;;;;;;14.82;5.85;;;;;;;-0.77;86.67;100601.06;6307429;28;20040;-74
2022/02/06 01:24:24;;;;;;;13.13;5.70;;;;;;;-0.82;86.87;100597.69;6324400;28;20043;-73
2022/02/06 01:27:35;;;;;;;9.63;5.18;;;;;;;-0.81;88.39;100599.38;6324396;28;20043;-73
2022/02/06 01:33:46;;;;;;;7.10;3.72;;;;;;;-0.63;88.10;100588.16;6290510;28;20504;-73
2022/02/06 01:37:02;;;;;;;12.23;5.05;;;;;;;-0.56;88.09;100573.59;6324156;28;20047;-73
2022/02/06 01:43:16;;;;;;;11.07;3.90;;;;;;;-0.56;87.17;100571.88;6323463;28;20047;-73
2022/02/06 01:46:50;;;;;;;8.82;3.88;;;;;;;-0.57;87.27;100575.31;6307358;28;20105;-70
2022/02/06 02:03:34;;;;;;;14.40;5.55;;;;;;;-0.69;85.32;100565.13;6308520;28;20044;-73
2022/02/06 02:45:37;;;;;;;26.55;12.38;;;;;;;-1.27;89.95;100545.81;6297294;28;20469;-68
2022/02/06 02:48:42;;;;;;;20.55;10.38;;;;;;;-1.32;90.99;100550.09;6297340;28;20051;-68
2022/02/06 02:51:46;;;;;;;17.90;7.97;;;;;;;-1.35;91.94;100550.13;6296865;28;20113;-69
2022/02/06 02:54:51;;;;;;;39.70;13.73;;;;;;;-1.39;91.34;100549.28;6297045;28;20040;-69
2022/02/06 03:01:13;;;;;;;28.17;12.20;;;;;;;-1.42;91.38;100556.97;6296965;28;20041;-69
2022/02/06 03:04:13;;;;;;;12.82;5.25;;;;;;;-1.44;91.59;100556.13;6296840;28;20040;-68
2022/02/06 03:07:14;;;;;;;10.35;4.15;;;;;;;-1.43;91.44;100555.28;6279114;28;20499;-69
2022/02/06 03:10:15;;;;;;;11.98;4.45;;;;;;;-1.48;91.46;100555.28;6278940;28;20048;-73
2022/02/06 03:13:18;;;;;;;8.65;3.53;;;;;;;-1.47;92.24;100553.56;6278994;28;20097;-74
2022/02/06 03:19:21;;;;;;;12.27;4.38;;;;;;;-1.51;91.93;100559.56;6296553;28;20082;-73
2022/02/06 03:22:31;;;;;;;24.05;9.32;;;;;;;-1.52;92.25;100565.56;6262707;28;20047;-73
2022/02/06 03:25:34;;;;;;;26.92;11.75;;;;;;;-1.49;92.46;100557.84;6280168;28;20074;-73
2022/02/06 03:28:34;;;;;;;29.80;10.38;;;;;;;-1.52;92.08;100556.16;6246252;28;20045;-73
2022/02/06 03:31:37;;;;;;;15.48;5.35;;;;;;;-1.46;91.53;100568.94;6278381;28;20083;-73
2022/02/06 03:34:37;;;;;;;16.60;5.93;;;;;;;-1.48;91.73;100569.81;6296355;28;20044;-73
2022/02/06 03:37:40;;;;;;;20.08;6.25;;;;;;;-1.45;92.09;100565.50;6261762;28;20045;-73
2022/02/06 03:40:49;;;;;;;16.35;5.90;;;;;;;-1.44;91.09;100559.53;6262191;28;20523;-73
2022/02/06 03:44:01;;;;;;;12.18;5.18;;;;;;;-1.60;92.41;100559.59;6262926;28;20062;-73
2022/02/06 03:47:11;;;;;;;11.88;3.95;;;;;;;-1.66;93.08;100560.47;6279980;28;20043;-72
2022/02/06 03:50:14;;;;;;;10.77;4.57;;;;;;;-1.58;92.78;100561.31;6296049;28;20052;-73
2022/02/06 03:53:20;;;;;;;13.25;5.47;;;;;;;-1.70;94.22;100556.22;6296026;28;20091;-73
2022/02/06 03:56:22;;;;;;;30.00;15.05;;;;;;;-1.68;94.04;100547.66;6296479;28;20047;-73
2022/02/06 03:59:23;;;;;;;14.55;7.05;;;;;;;-1.79;95.32;100544.31;6245606;28;20051;-73
2022/02/06 04:02:23;;;;;;;27.17;14.07;;;;;;;-1.75;94.78;100566.47;6295921;28;20072;-73
2022/02/06 04:05:24;;;;;;;18.40;7.30;;;;;;;-1.70;94.51;100553.66;6278149;28;20075;-73
2022/02/06 04:08:28;;;;;;;5.82;3.20;;;;;;;-1.71;94.99;100542.59;6299281;28;20484;-73
2022/02/06 04:11:44;;;;;;;8.63;2.78;;;;;;;-1.92;96.67;100535.78;6283096;28;20548;-73
2022/02/06 04:15:22;;;;;;;6.20;2.78;;;;;;;-1.94;97.03;100537.50;6283036;28;20119;-73
2022/02/06 04:18:27;;;;;;;5.50;2.83;;;;;;;-1.94;97.02;100534.09;6283310;28;20501;-73
2022/02/06 04:21:27;;;;;;;5.68;3.10;;;;;;;-1.87;95.72;100533.25;6284872;28;20395;-73
2022/02/06 04:24:29;;;;;;;5.80;3.13;;;;;;;-1.93;96.56;100531.53;6266977;28;20044;-73
2022/02/06 04:27:30;;;;;;;6.80;3.15;;;;;;;-1.91;96.12;100526.44;6266894;28;20052;-73
2022/02/06 04:30:31;;;;;;;6.28;2.85;;;;;;;-1.79;95.36;100513.59;6266666;28;20040;-73
2022/02/06 04:33:32;;;;;;;8.25;4.18;;;;;;;-1.80;95.63;100511.88;6300445;28;20040;-73
2022/02/06 04:36:42;;;;;;;9.20;3.28;;;;;;;-1.81;95.51;100512.75;6266454;28;20381;-69
2022/02/06 04:53:10;;;;;;;6.03;3.80;;;;;;;-1.59;93.43;100516.06;6284867;28;20586;-69
2022/02/06 05:13:11;;;;;;;6.55;3.97;;;;;;;-1.33;92.92;100526.22;6270462;28;20051;-73
2022/02/06 05:15:46;;;;;;;13.50;5.20;;;;;;;-1.27;92.42;100512.53;6296371;28;20489;-73
2022/02/06 05:28:42;;;;;;;8.43;4.22;;;;;;;-1.41;95.70;100494.69;6299269;28;20039;-73
2022/02/06 05:34:53;;;;;;;7.28;4.20;;;;;;;-1.23;94.87;100519.34;6299041;28;20037;-68
2022/02/06 05:37:53;;;;;;;7.68;4.63;;;;;;;-1.26;95.41;100519.34;6264624;28;20051;-73
2022/02/06 05:40:55;;;;;;;10.35;4.95;;;;;;;-1.20;94.92;100519.31;6281112;28;20040;-73
2022/02/06 05:43:55;;;;;;;11.82;5.43;;;;;;;-1.10;94.72;100541.44;6298999;28;20040;-73
2022/02/06 05:46:57;;;;;;;43.35;22.55;;;;;;;-0.99;94.89;100535.41;6281459;28;20076;-73
2022/02/06 05:49:59;;;;;;;104.72;49.17;;;;;;;-0.84;94.51;100525.94;6298813;28;20037;-73
2022/02/06 05:53:00;;;;;;;79.15;33.08;;;;;;;-0.84;94.70;100525.94;6298460;28;20516;-73
2022/02/06 05:56:01;;;;;;;18.25;11.70;;;;;;;-0.99;95.51;100527.72;6280833;28;20040;-73
2022/02/06 05:59:05;;;;;;;9.02;5.43;;;;;;;-0.87;94.71;100523.38;6264267;28;20507;-73
2022/02/06 06:02:06;;;;;;;10.50;4.95;;;;;;;-0.72;94.49;100527.56;6298449;28;20396;-73
2022/02/06 06:05:08;;;;;;;8.90;4.85;;;;;;;-0.72;94.50;100521.56;6264030;28;20450;-73
2022/02/06 06:08:09;;;;;;;9.75;4.80;;;;;;;-0.65;93.84;100516.41;6298493;28;20075;-73
2022/02/06 06:11:09;;;;;;;10.55;4.78;;;;;;;-0.58;94.11;100512.06;6263848;28;20381;-73
2022/02/06 06:14:10;;;;;;;6.57;4.38;;;;;;;-0.67;95.32;100518.13;6280274;28;20044;-73
2022/02/06 06:17:11;;;;;;;10.38;4.72;;;;;;;-0.45;94.86;100526.50;6280422;28;20086;-73
2022/02/06 06:20:16;;;;;;;10.30;3.92;;;;;;;-0.41;93.88;100535.88;6280620;28;20044;-73
2022/02/06 06:23:17;;;;;;;9.15;3.92;;;;;;;-0.31;91.48;100536.66;6281459;28;20048;-73
2022/02/06 06:26:20;;;;;;;10.48;4.18;;;;;;;-0.06;88.69;100534.69;6280763;28;20080;-73
2022/02/06 06:29:21;;;;;;;7.38;3.65;;;;;;;-0.02;88.05;100527.84;6280724;28;20127;-73
2022/02/06 06:32:21;;;;;;;7.80;4.28;;;;;;;0.03;88.06;100527.78;6298230;28;20093;-73
2022/02/06 06:35:23;;;;;;;6.75;3.50;;;;;;;0.02;86.90;100526.91;6298280;28;20040;-73
2022/02/06 06:38:24;;;;;;;9.15;4.30;;;;;;;0.13;86.74;100530.22;6298254;28;20036;-73
2022/02/06 06:41:25;;;;;;;10.13;4.47;;;;;;;0.26;86.40;100533.50;6263718;28;20568;-73
2022/02/06 06:44:25;;;;;;;7.35;4.00;;;;;;;0.44;85.52;100539.31;6280353;28;20041;-73
2022/02/06 06:47:26;;;;;;;6.05;3.60;;;;;;;0.38;85.94;100527.38;6247405;28;20059;-73
2022/02/06 06:50:33;;;;;;;9.10;3.50;;;;;;;0.47;84.97;100519.56;6280001;28;20036;-73
2022/02/06 06:53:38;;;;;;;8.95;3.22;;;;;;;0.52;85.29;100522.09;6297685;28;20048;-73
2022/02/06 06:56:47;;;;;;;5.43;3.15;;;;;;;0.64;85.18;100518.50;6279928;28;20041;-73
2022/02/06 07:02:52;;;;;;;7.75;3.90;;;;;;;0.73;85.42;100526.13;6296894;28;20048;-73
2022/02/06 07:05:53;;;;;;;15.38;6.70;;;;;;;0.87;85.03;100526.78;6301884;28;20051;-73
2022/02/06 07:08:54;;;;;;;8.07;4.25;;;;;;;0.82;85.67;100520.00;6287216;28;20479;-69
2022/02/06 07:11:54;;;;;;;103.78;41.05;;;;;;;0.91;84.80;100513.03;6322186;28;20056;-68
2022/02/06 07:14:55;;;;;;;122.60;45.65;;;;;;;0.99;84.94;100515.50;6287280;28;20040;-68
2022/02/06 07:17:56;;;;;;;50.78;23.00;;;;;;;0.92;85.13;100516.44;6303801;28;20044;-69
2022/02/06 07:20:57;;;;;;;9.13;5.03;;;;;;;0.77;86.28;100507.22;6299688;28;20048;-68
2022/02/06 07:23:58;;;;;;;10.77;5.15;;;;;;;0.80;85.50;100502.91;6304143;28;20037;-68
2022/02/06 07:27:02;;;;;;;12.27;5.50;;;;;;;0.71;84.43;100494.47;6262395;28;20754;-69
2022/02/06 07:30:06;;;;;;;7.93;3.88;;;;;;;0.62;85.19;100494.56;6279129;28;20060;-73
2022/02/06 07:33:07;;;;;;;7.20;3.95;;;;;;;0.82;84.20;100497.72;6296291;28;20110;-69
2022/02/06 07:36:08;;;;;;;9.85;3.65;;;;;;;1.07;83.61;100492.22;6296473;28;20036;-70
2022/02/06 07:39:08;;;;;;;8.85;4.82;;;;;;;1.08;83.64;100492.22;6296261;28;20043;-69
2022/02/06 07:42:11;;;;;;;8.07;4.13;;;;;;;1.14;83.65;100496.41;6277255;28;20079;-73
2022/02/06 07:45:14;;;;;;;9.95;5.15;;;;;;;1.14;82.82;100491.28;6278386;28;20041;-73
2022/02/06 07:48:15;;;;;;;13.27;5.07;;;;;;;1.04;83.07;100493.13;6296577;28;20044;-74
2022/02/06 07:51:16;;;;;;;8.50;4.50;;;;;;;1.12;82.33;100491.28;6278378;28;20098;-74
2022/02/06 07:54:17;;;;;;;10.55;5.32;;;;;;;1.34;82.39;100496.09;6311688;28;20407;-69
2022/02/06 07:57:19;;;;;;;9.93;5.40;;;;;;;1.23;84.83;100501.41;6321123;28;20040;-73
2022/02/06 08:00:19;;;;;;;10.73;5.67;;;;;;;0.95;87.49;100501.00;6321211;28;20040;-73
2022/02/06 08:03:20;;;;;;;14.27;5.28;;;;;;;0.77;88.04;100504.66;6321082;28;20106;-73
2022/02/06 08:06:21;;;;;;;10.05;5.03;;;;;;;0.74;89.45;100514.94;6303030;28;20097;-68
2022/02/06 08:12:44;;;;;;;11.95;5.45;;;;;;;0.66;90.34;100521.91;6304569;28;20545;-73
2022/02/06 08:15:45;;;;;;;9.60;5.18;;;;;;;0.64;90.31;100523.66;6321000;28;20044;-73
2022/02/06 08:18:45;;;;;;;10.35;5.43;;;;;;;0.72;89.39;100514.13;6303059;28;20044;-74
2022/02/06 08:21:46;;;;;;;11.75;6.03;;;;;;;0.71;88.97;100515.00;6286449;28;20092;-73
2022/02/06 08:24:49;;;;;;;12.60;5.30;;;;;;;0.74;87.72;100517.53;6320748;28;20044;-73
2022/02/06 08:27:50;;;;;;;12.80;5.55;;;;;;;0.88;86.76;100507.06;6320878;28;20048;-73
2022/02/06 08:30:51;;;;;;;10.77;4.80;;;;;;;1.12;85.14;100504.16;6286246;28;20126;-73
2022/02/06 08:33:52;;;;;;;11.10;4.68;;;;;;;1.19;84.92;100497.19;6302692;28;20048;-73
2022/02/06 08:36:53;;;;;;;6.78;4.10;;;;;;;1.16;84.52;100495.50;6302761;28;20036;-68
2022/02/06 08:39:55;;;;;;;11.73;4.90;;;;;;;1.28;84.14;100499.63;6295953;28;20044;-73
2022/02/06 08:42:55;;;;;;;13.50;4.73;;;;;;;1.24;84.33;100497.13;6310771;28;20048;-73
2022/02/06 08:45:56;;;;;;;11.25;5.00;;;;;;;1.39;84.71;100492.56;6306193;28;20699;-73
2022/02/06 08:48:57;;;;;;;8.48;4.80;;;;;;;1.30;85.46;100497.88;6295515;28;20040;-73
2022/02/06 08:51:58;;;;;;;12.98;5.90;;;;;;;1.28;84.78;100496.22;6315165;28;20067;-74
2022/02/06 08:55:00;;;;;;;9.30;5.25;;;;;;;1.32;84.83;100503.84;6305721;28;20047;-73
2022/02/06 08:58:01;;;;;;;;;;;;;;;1.31;85.18;100507.28;6303991;28;20454;-73
2022/02/06 09:01:04;;;;;;;8.32;4.30;;;;;;;1.32;85.57;100491.00;6297688;28;19927;-70
2022/02/06 09:04:05;;;;;;;10.02;4.82;;;;;;;1.28;86.94;100501.34;6292735;28;20053;-68
2022/02/06 09:07:07;;;;;;;18.67;7.32;;;;;;;1.33;87.84;100496.97;6294969;28;20052;-73
2022/02/06 09:10:09;;;;;;;16.15;8.57;;;;;;;1.00;90.11;100486.34;6307578;28;20108;-69
2022/02/06 09:13:11;;;;;;;10.15;5.93;;;;;;;1.04;90.08;100489.72;6291429;28;20392;-69
2022/02/06 09:16:12;;;;;;;10.90;5.13;;;;;;;1.04;87.96;100492.28;6312273;28;20048;-73
2022/02/06 09:19:14;;;;;;;9.95;5.35;;;;;;;1.20;88.05;100484.31;6307138;28;20044;-73
2022/02/06 09:22:15;;;;;;;11.52;5.68;;;;;;;1.23;87.48;100490.28;6290125;28;20100;-74
2022/02/06 09:25:17;;;;;;;11.95;5.30;;;;;;;1.18;87.71;100488.63;6324906;28;20044;-73
2022/02/06 09:28:17;;;;;;;13.40;6.20;;;;;;;1.21;88.65;100492.88;6324731;28;20447;-69
2022/02/06 09:31:24;;;;;;;12.25;6.72;;;;;;;1.09;88.85;100475.06;6310897;28;20070;-73
2022/02/06 09:37:27;;;;;;;10.75;5.75;;;;;;;1.30;86.37;100468.75;6289520;28;20545;-69
2022/02/06 09:40:28;;;;;;;9.43;5.67;;;;;;;1.15;86.56;100467.25;6324101;28;20044;-69
2022/02/06 09:43:30;;;;;;;10.98;5.43;;;;;;;1.31;86.79;100468.72;6324098;28;20033;-69
2022/02/06 09:46:32;;;;;;;8.77;4.80;;;;;;;1.14;88.08;100466.41;6305897;28;20114;-68
2022/02/06 09:49:34;;;;;;;10.32;4.80;;;;;;;1.02;89.69;100452.91;6324017;28;20408;-68
2022/02/06 09:52:39;;;;;;;8.90;4.80;;;;;;;1.08;89.51;100445.09;6305603;28;20052;-68
2022/02/06 09:55:39;;;;;;;9.75;5.20;;;;;;;1.15;90.72;100446.69;6289592;28;20044;-68
2022/02/06 09:59:01;;;;;;;13.57;5.75;;;;;;;1.16;89.21;100433.81;6323620;28;20071;-69
2022/02/06 10:02:03;;;;;;;6.60;4.05;;;;;;;1.14;88.83;100420.16;6305611;28;20044;-69
2022/02/06 10:05:05;;;;;;;;;;;;;;;1.30;88.97;100425.88;6323028;28;20096;-69
2022/02/06 10:08:14;;;;;;;9.13;5.47;;;;;;;1.39;89.32;100422.31;6323587;28;19935;-69
2022/02/06 10:11:17;;;;;;;12.93;5.55;;;;;;;1.41;89.03;100410.28;6305576;28;20059;-68
2022/02/06 10:14:18;;;;;;;11.68;6.63;;;;;;;1.51;88.93;100408.38;6323471;28;20043;-69
2022/02/06 10:17:23;;;;;;;11.55;6.05;;;;;;;1.65;88.31;100405.53;6305155;28;20043;-69
2022/02/06 10:20:29;;;;;;;18.58;9.38;;;;;;;1.88;87.43;100398.25;6289428;28;20051;-69
2022/02/06 10:23:46;;;;;;;16.95;7.57;;;;;;;1.73;86.68;100390.81;6305888;28;20043;-68
2022/02/06 10:27:12;;;;;;;19.52;7.45;;;;;;;1.95;85.47;100384.38;6304874;28;20052;-68
2022/02/06 10:30:40;;;;;;;11.32;6.03;;;;;;;1.86;85.58;100366.56;6322902;28;20036;-68
2022/02/06 10:33:48;;;;;;;13.07;6.85;;;;;;;2.15;84.75;100367.69;6304533;28;20144;-69
2022/02/06 10:37:08;;;;;;;13.77;6.10;;;;;;;2.20;84.46;100364.13;6322868;28;20040;-69
2022/02/06 10:40:09;;;;;;;12.73;6.18;;;;;;;2.36;83.06;100366.34;6322759;28;20458;-70
2022/02/06 10:43:12;;;;;;;13.05;7.43;;;;;;;2.70;81.74;100352.69;6322675;28;20036;-70
2022/02/06 10:46:14;;;;;;;14.38;7.50;;;;;;;2.65;82.06;100349.38;6304748;28;20047;-73
2022/02/06 10:49:17;;;;;;;27.13;9.87;;;;;;;2.32;82.73;100342.38;6322537;28;20048;-73
2022/02/06 10:52:26;;;;;;;40.50;15.63;;;;;;;2.36;84.31;100335.44;6304225;28;20056;-69
2022/02/06 10:55:27;;;;;;;36.40;13.20;;;;;;;2.48;83.84;100342.06;6322195;28;20036;-69
2022/02/06 10:58:34;;;;;;;23.90;9.68;;;;;;;2.42;85.00;100325.84;6322317;28;20400;-69
2022/02/06 11:01:40;;;;;;;14.73;7.55;;;;;;;2.65;84.55;100324.47;6304335;28;20050;-73
2022/02/06 11:04:57;;;;;;;21.45;9.27;;;;;;;2.67;83.79;100311.56;6322737;28;20076;-74
2022/02/06 11:08:03;;;;;;;12.93;6.50;;;;;;;2.77;82.35;100307.88;6293042;28;20178;-68
2022/02/06 11:11:06;;;;;;;10.70;5.45;;;;;;;2.86;82.92;100291.31;6266190;28;20041;-68
2022/02/06 11:14:11;;;;;;;10.88;6.38;;;;;;;2.74;82.71;100285.59;6304717;28;20484;-68
2022/02/06 11:17:20;;;;;;;9.77;6.28;;;;;;;2.65;82.60;100278.09;6312788;28;20396;-68
2022/02/06 11:20:22;;;;;;;12.18;5.28;;;;;;;2.79;81.73;100272.59;6297496;28;20044;-69
2022/02/06 11:23:50;;;;;;;7.72;4.82;;;;;;;2.96;80.74;100270.41;6263408;28;20036;-68
2022/02/06 11:26:52;;;;;;;9.15;4.95;;;;;;;3.16;81.06;100264.72;6279557;28;20048;-68
2022/02/06 11:29:54;;;;;;;10.75;5.72;;;;;;;3.46;80.20;100241.56;6296625;28;20047;-69
2022/02/06 11:32:55;;;;;;;;;;;;;;;3.74;81.20;100235.59;6297111;28;20037;-67
2022/02/06 11:36:07;;;;;;;11.60;5.57;;;;;;;4.06;79.29;100220.84;6297141;28;19920;-68
2022/02/06 11:46:20;;;;;;;15.30;6.65;;;;;;;5.18;75.72;100212.75;6273128;28;20060;-68
2022/02/06 11:49:22;;;;;;;16.98;7.97;;;;;;;5.08;75.33;100211.38;6296193;28;20048;-68
2022/02/06 11:52:53;;;;;;;20.38;9.32;;;;;;;4.74;75.82;100217.75;6247588;28;20045;-73
2022/02/06 11:55:57;;;;;;;25.38;10.00;;;;;;;4.39;76.79;100208.59;6271153;28;20045;-73
2022/02/06 11:59:12;;;;;;;18.83;9.32;;;;;;;4.26;77.77;100197.81;6254230;28;20048;-68
2022/02/06 12:02:27;;;;;;;19.90;10.23;;;;;;;4.13;77.62;100193.94;6271595;28;20079;-73
2022/02/06 12:05:28;;;;;;;13.32;7.25;;;;;;;4.12;77.66;100187.06;6237985;28;20048;-69
2022/02/06 12:08:29;;;;;;;26.90;15.63;;;;;;;4.18;78.30;100173.97;6254195;28;20128;-68
2022/02/06 12:11:32;;;;;;;17.52;9.20;;;;;;;4.14;79.14;100174.94;6271963;28;20394;-68
2022/02/06 12:14:40;;;;;;;29.10;16.13;;;;;;;4.06;79.50;100172.66;6254028;28;20379;-68
2022/02/06 12:18:12;;;;;;;39.55;21.77;;;;;;;3.93;78.96;100167.03;6271617;28;20120;-72
2022/02/06 12:21:19;;;;;;;29.27;16.50;;;;;;;4.10;77.87;100161.31;6271879;28;20119;-73
2022/02/06 12:24:41;;;;;;;13.38;7.95;;;;;;;4.15;78.13;100149.09;6271744;28;20045;-73
2022/02/06 12:27:41;;;;;;;12.13;6.93;;;;;;;4.29;76.68;100146.06;6272316;28;20048;-73
2022/02/06 12:30:44;;;;;;;18.70;10.75;;;;;;;4.22;76.90;100134.22;6242302;28;20555;-72
2022/02/06 12:33:55;;;;;;;18.25;10.32;;;;;;;4.10;78.54;100135.50;6276452;28;20528;-72
2022/02/06 12:37:08;;;;;;;16.02;9.10;;;;;;;4.15;79.50;100119.84;6259478;28;20045;-73
2022/02/06 12:40:15;;;;;;;9.60;6.05;;;;;;;4.22;79.41;100119.59;6243116;28;20053;-72
2022/02/06 12:43:17;;;;;;;9.70;6.20;;;;;;;4.40;79.46;100118.09;6257782;28;20071;-73
2022/02/06 12:46:20;;;;;;;15.48;7.80;;;;;;;4.60;79.04;100116.56;6275418;28;20431;-70
2022/02/06 12:49:28;;;;;;;14.60;6.65;;;;;;;4.85;77.01;100121.72;6275413;28;20094;-69
2022/02/06 12:52:35;;;;;;;16.30;6.70;;;;;;;4.77;77.42;100110.78;6290676;28;20049;-69
2022/02/06 12:55:37;;;;;;;12.25;6.55;;;;;;;4.81;75.11;100097.69;6282247;28;20045;-73
2022/02/06 12:58:38;;;;;;;14.15;6.00;;;;;;;4.95;73.42;100094.63;6282096;28;20032;-73
2022/02/06 13:01:42;;;;;;;21.63;8.18;;;;;;;5.00;76.05;100087.53;6300031;28;20035;-73
2022/02/06 13:04:58;;;;;;;27.67;9.88;;;;;;;4.82;77.43;100068.38;6282203;28;20044;-68
2022/02/06 13:07:59;;;;;;;15.20;8.40;;;;;;;4.88;76.57;100069.03;6281949;28;20127;-73
2022/02/06 13:11:07;;;;;;;12.00;6.47;;;;;;;4.89;75.89;100073.31;6265228;28;20071;-73
2022/02/06 13:14:18;;;;;;;17.23;9.05;;;;;;;5.07;75.52;100059.69;6281889;28;20481;-73
2022/02/06 13:20:47;;;;;;;9.38;5.20;;;;;;;5.12;75.55;100047.41;6281949;28;20048;-68
2022/02/06 13:24:05;;;;;;;8.90;4.90;;;;;;;5.34;70.26;100029.31;6299476;28;20041;-68
2022/02/06 13:27:23;;;;;;;12.48;6.50;;;;;;;5.74;71.21;100003.56;6299692;28;20052;-68
2022/02/06 13:34:15;;;;;;;7.85;4.18;;;;;;;5.30;70.35;100016.56;6299151;28;20055;-73
2022/02/06 13:37:26;;;;;;;11.68;3.90;;;;;;;5.42;69.57;100010.91;6267430;28;20044;-68
2022/02/06 13:40:31;;;;;;;11.20;5.13;;;;;;;5.60;69.81;99998.94;6297900;28;20523;-68
2022/02/06 13:43:40;;;;;;;8.68;4.38;;;;;;;5.26;70.63;99987.38;6265312;28;20048;-72
2022/02/06 13:46:42;;;;;;;12.38;5.47;;;;;;;5.42;70.07;99982.44;6298864;28;20044;-73
2022/02/06 13:49:49;;;;;;;9.93;5.55;;;;;;;5.34;70.62;99979.31;6298913;28;20045;-73
2022/02/06 13:53:07;;;;;;;10.48;5.05;;;;;;;5.40;70.57;99968.72;6265697;28;20065;-72
2022/02/06 13:56:13;;;;;;;14.68;6.93;;;;;;;5.34;71.78;99954.28;6289247;28;20033;-73
2022/02/06 13:59:19;;;;;;;19.98;8.05;;;;;;;5.39;71.17;99956.69;6274282;28;20048;-73
2022/02/06 14:02:20;;;;;;;11.23;6.45;;;;;;;5.63;70.39;99960.00;6273751;28;20045;-73
2022/02/06 14:05:23;;;;;;;13.57;5.97;;;;;;;5.82;69.91;99947.94;6282410;28;20044;-73
2022/02/06 14:08:26;;;;;;;9.55;5.32;;;;;;;5.43;72.53;99947.88;6298424;28;20051;-73
2022/02/06 14:11:31;;;;;;;;;;;;;;;5.39;73.24;99939.41;6298681;28;20072;-72
2022/02/06 14:14:46;;;;;;;9.48;5.53;;;;;;;5.33;74.14;99924.13;6281234;28;19927;-73
2022/02/06 14:17:49;;;;;;;8.27;4.80;;;;;;;5.23;75.04;99920.25;6280117;28;20113;-73
2022/02/06 14:20:58;;;;;;;9.65;5.32;;;;;;;5.11;75.91;99923.34;6263561;28;20471;-73
2022/02/06 14:24:08;;;;;;;10.48;5.15;;;;;;;5.19;75.38;99927.31;6297876;28;20451;-73
2022/02/06 14:27:11;;;;;;;7.85;4.90;;;;;;;5.13;75.06;99931.88;6280513;28;20068;-72
2022/02/06 14:30:13;;;;;;;;;;;;;;;5.18;76.37;99937.69;6298259;28;20124;-72
2022/02/06 14:33:17;;;;;;;9.23;4.47;;;;;;;5.07;76.57;99929.56;6280233;28;19920;-73
2022/02/06 14:36:23;;;;;;;10.32;4.72;;;;;;;5.01;77.22;99928.03;6297992;28;20293;-68
2022/02/06 14:39:31;;;;;;;20.20;7.57;;;;;;;5.03;78.17;99913.31;6280552;28;20037;-69
2022/02/06 14:42:34;;;;;;;13.70;5.68;;;;;;;4.94;78.92;99913.66;6247525;28;20053;-68
2022/02/06 14:45:35;;;;;;;17.77;6.53;;;;;;;4.85;79.44;99907.13;6280208;28;20044;-68
2022/02/06 14:48:37;;;;;;;8.95;4.72;;;;;;;4.90;78.61;99907.78;6297295;28;20044;-69
2022/02/06 14:51:41;;;;;;;21.08;6.47;;;;;;;4.94;77.91;99911.94;6285477;28;20561;-72
2022/02/06 14:54:45;;;;;;;12.98;6.32;;;;;;;4.84;77.93;99911.47;6322311;28;20039;-73
2022/02/06 14:57:47;;;;;;;15.60;6.57;;;;;;;4.76;78.34;99903.16;6322150;28;20043;-72
2022/02/06 15:00:48;;;;;;;14.75;5.72;;;;;;;4.82;77.04;99907.25;6304235;28;20059;-72
2022/02/06 15:03:49;;;;;;;14.45;6.15;;;;;;;4.74;77.85;99904.13;6322113;28;20123;-72
2022/02/06 15:06:49;;;;;;;12.15;5.50;;;;;;;4.71;77.94;99901.66;6322068;28;20404;-68
2022/02/06 15:09:50;;;;;;;9.30;4.65;;;;;;;4.62;77.86;99901.09;6322132;28;20127;-68
2022/02/06 15:12:51;;;;;;;10.77;5.57;;;;;;;4.50;79.01;99890.41;6322033;28;20443;-68
2022/02/06 15:15:59;;;;;;;18.58;9.68;;;;;;;4.42;79.41;99881.19;6303821;28;20036;-73
2022/02/06 15:19:18;;;;;;;13.70;9.88;;;;;;;4.39;79.60;99875.34;6304918;28;20048;-69
2022/02/06 15:22:19;;;;;;;11.40;4.93;;;;;;;4.26;80.94;99874.94;6321824;28;20043;-72
2022/02/06 15:25:20;;;;;;;11.52;5.25;;;;;;;4.20;81.46;99860.53;6287285;28;20040;-68
2022/02/06 15:28:22;;;;;;;12.20;4.53;;;;;;;4.15;82.03;99848.69;6303640;28;20165;-73
2022/02/06 15:31:23;;;;;;;18.42;6.68;;;;;;;4.08;82.87;99840.34;6321663;28;20506;-73
2022/02/06 15:34:26;;;;;;;16.00;7.68;;;;;;;3.99;83.98;99843.25;6303620;28;20046;-72
2022/02/06 15:37:29;;;;;;;18.80;8.48;;;;;;;3.83;85.36;99832.66;6303662;28;20056;-72
2022/02/06 15:40:31;;;;;;;13.60;7.00;;;;;;;3.90;85.23;99841.03;6287564;28;20484;-73
2022/02/06 15:43:32;;;;;;;12.27;5.30;;;;;;;3.75;85.85;99838.09;6303624;28;20423;-73
2022/02/06 15:46:34;;;;;;;8.15;4.57;;;;;;;3.69;86.30;99828.00;6303347;28;20043;-73
2022/02/06 15:49:35;;;;;;;13.90;5.43;;;;;;;3.75;86.05;99830.34;6303380;28;20047;-68
2022/02/06 15:52:36;;;;;;;11.30;5.22;;;;;;;3.60;87.33;99828.31;6321005;28;20086;-72
2022/02/06 15:55:37;;;;;;;9.55;4.97;;;;;;;3.56;87.19;99814.72;6321068;28;20097;-73
2022/02/06 15:58:38;;;;;;;10.80;5.10;;;;;;;3.59;86.97;99821.50;6286533;28;20036;-73
2022/02/06 16:01:38;;;;;;;12.07;5.82;;;;;;;3.56;87.16;99816.41;6320862;28;20123;-72
2022/02/06 16:04:39;;;;;;;11.77;6.13;;;;;;;3.53;87.72;99812.22;6320359;28;20120;-73
2022/02/06 16:07:42;;;;;;;12.77;5.65;;;;;;;3.39;88.21;99809.28;6286301;28;20048;-73
2022/02/06 16:10:43;;;;;;;13.25;6.18;;;;;;;3.46;88.12;99810.78;6321038;28;20044;-73
2022/02/06 16:13:44;;;;;;;12.55;6.00;;;;;;;3.50;87.80;99807.19;6286685;28;20497;-73
2022/02/06 16:16:45;;;;;;;17.80;6.78;;;;;;;3.46;88.05;99800.47;6320943;28;20510;-68
2022/02/06 16:19:46;;;;;;;13.55;6.55;;;;;;;3.43;88.38;99798.81;6320845;28;20044;-68
2022/02/06 16:22:47;;;;;;;18.98;7.03;;;;;;;3.37;89.04;99791.28;6286269;28;20044;-68
2022/02/06 16:25:48;;;;;;;22.05;8.27;;;;;;;3.29;89.06;99792.47;6318516;28;20056;-69
2022/02/06 16:28:53;;;;;;;11.85;6.10;;;;;;;3.32;89.19;99787.22;6286066;28;20063;-68
2022/02/06 16:31:53;;;;;;;15.30;6.85;;;;;;;3.19;90.01;99781.63;6320843;28;20047;-69
2022/02/06 16:34:55;;;;;;;14.05;6.57;;;;;;;3.17;90.15;99788.56;6290639;28;20060;-69
2022/02/06 16:37:58;;;;;;;18.60;6.00;;;;;;;3.19;89.99;99782.47;6295703;28;20170;-69
2022/02/06 16:40:59;;;;;;;12.45;6.40;;;;;;;3.22;89.39;99784.94;6295511;28;20094;-69
2022/02/06 16:44:00;;;;;;;17.13;6.70;;;;;;;3.27;88.78;99779.59;6299271;28;20089;-69